Bourke Airport


Codes: YBKE/BRK
Name: Bourke Airport
City:
Country: Australia
Elevation: 352 ft.
Wikipedia:

Photos at Bourke Airport


   Photos courtesy of SpottingLog. You can add your own sightings and photos by signing up for a free trial today.



No photos found.

Weather at Bourke Airport


Time (UTC)DescriptionTempratureWindCloud coverageVisibilityPressureHumidity
23-May-2024 21:00Overcast Clouds11°C7 mph, SE96%10000m1025hPa57%
24-May-2024 00:00Overcast Clouds14°C4 mph, E94%10000m1026hPa48%
24-May-2024 03:00Overcast Clouds19°C4 mph, E100%10000m1024hPa32%
24-May-2024 06:00Overcast Clouds19°C2 mph, E100%10000m1023hPa32%
24-May-2024 09:00Overcast Clouds16°C4 mph, E100%10000m1024hPa42%
24-May-2024 12:00Overcast Clouds15°C7 mph, E100%10000m1025hPa45%
24-May-2024 15:00Overcast Clouds14°C7 mph, E99%10000m1024hPa48%
24-May-2024 18:00Overcast Clouds13°C7 mph, E99%10000m1024hPa52%
24-May-2024 21:00Overcast Clouds12°C7 mph, E100%10000m1025hPa54%
25-May-2024 00:00Overcast Clouds17°C7 mph, E92%10000m1026hPa42%
25-May-2024 03:00Broken Clouds20°C4 mph, NE58%10000m1024hPa35%
25-May-2024 06:00Scattered Clouds21°C2 mph, E42%10000m1022hPa34%
25-May-2024 09:00Clear Sky17°C4 mph, E2%10000m1024hPa44%
25-May-2024 12:00Clear Sky16°C7 mph, SE3%10000m1025hPa48%
25-May-2024 15:00Clear Sky15°C7 mph, SE4%10000m1024hPa53%
25-May-2024 18:00Clear Sky14°C7 mph, E2%10000m1024hPa56%
25-May-2024 21:00Clear Sky13°C7 mph, E0%10000m1025hPa58%
26-May-2024 00:00Clear Sky18°C7 mph, E0%10000m1026hPa45%
26-May-2024 03:00Clear Sky21°C2 mph, NE0%10000m1024hPa39%
26-May-2024 06:00Clear Sky22°C2 mph, SW0%10000m1022hPa37%
26-May-2024 09:00Clear Sky18°C4 mph, S0%10000m1023hPa47%
26-May-2024 12:00Clear Sky16°C9 mph, S0%10000m1024hPa48%
26-May-2024 15:00Clear Sky14°C7 mph, SE0%10000m1024hPa48%
26-May-2024 18:00Clear Sky13°C7 mph, S0%10000m1024hPa50%
26-May-2024 21:00Clear Sky12°C7 mph, S0%10000m1025hPa56%
27-May-2024 00:00Clear Sky17°C7 mph, SE0%10000m1026hPa42%
27-May-2024 03:00Clear Sky20°C4 mph, S0%10000m1024hPa35%
27-May-2024 06:00Clear Sky21°C7 mph, S0%10000m1023hPa28%
27-May-2024 09:00Clear Sky16°C7 mph, S0%10000m1024hPa36%
27-May-2024 12:00Clear Sky14°C7 mph, SE0%10000m1025hPa49%
27-May-2024 15:00Clear Sky13°C9 mph, SE0%10000m1025hPa54%
27-May-2024 18:00Clear Sky11°C9 mph, SE0%10000m1025hPa56%
27-May-2024 21:00Clear Sky10°C9 mph, SE0%10000m1026hPa62%
28-May-2024 00:00Clear Sky16°C7 mph, E0%10000m1027hPa45%
28-May-2024 03:00Clear Sky19°C4 mph, E0%10000m1024hPa33%
28-May-2024 06:00Clear Sky20°C4 mph, NE0%10000m1023hPa30%
28-May-2024 09:00Clear Sky16°C7 mph, NE0%10000m1024hPa41%
28-May-2024 12:00Clear Sky14°C7 mph, E0%10000m1024hPa45%
28-May-2024 15:00Clear Sky14°C7 mph, E0%10000m1023hPa48%
28-May-2024 18:00Clear Sky13°C7 mph, E0%10000m1023hPa49%